Time;durP1;ratioP1;P1;durP2;ratioP2;P2;SDS_P1;SDS_P2;PMS_P1;PMS_P2;Temp;Humidity;BMP_temperature;BMP_pressure;BME280_temperature;BME280_humidity;BME280_pressure;Samples;Min_cycle;Max_cycle;Signal;HPM_P1;HPM_P2
2023/04/21 00:01:17;;;;;;;13.93;12.93;;;;;;;6.13;100.00;98233.47;4137419;28;20312;-48
2023/04/21 00:03:20;;;;;;;15.63;14.40;;;;;;;6.13;100.00;98233.47;4118939;28;20237;-50
2023/04/21 00:05:23;;;;;;;14.00;12.68;;;;;;;6.16;100.00;98227.59;4138300;28;20296;-50
2023/04/21 00:07:25;;;;;;;15.02;13.65;;;;;;;6.25;100.00;98231.63;4152045;28;21750;-50
2023/04/21 00:09:27;;;;;;;13.38;12.38;;;;;;;6.21;100.00;98227.72;4122379;28;20328;-49
2023/04/21 00:11:28;;;;;;;13.40;12.02;;;;;;;6.25;100.00;98231.63;4123908;28;20229;-49
2023/04/21 00:13:30;;;;;;;13.88;12.77;;;;;;;6.29;100.00;98238.28;4118886;28;20792;-50
2023/04/21 00:15:32;;;;;;;14.07;12.98;;;;;;;6.34;100.00;98232.97;4135770;28;20683;-49
2023/04/21 00:17:34;;;;;;;15.93;14.65;;;;;;;6.31;100.00;98230.72;4138729;28;20244;-49
2023/04/21 00:19:38;;;;;;;14.18;13.10;;;;;;;6.32;100.00;98225.06;4139603;28;20663;-50
2023/04/21 00:21:40;;;;;;;15.85;14.65;;;;;;;6.29;100.00;98225.50;4149208;28;20208;-49
2023/04/21 00:23:42;;;;;;;18.33;14.27;;;;;;;6.28;100.00;98220.34;4137975;28;20263;-50
2023/04/21 00:25:43;;;;;;;14.43;13.20;;;;;;;6.31;100.00;98219.84;4123904;28;20214;-50
2023/04/21 00:27:45;;;;;;;13.70;12.70;;;;;;;6.29;100.00;98211.13;4140436;28;20302;-49
2023/04/21 00:29:47;;;;;;;14.02;13.02;;;;;;;6.24;100.00;98202.81;4154149;28;20205;-49
2023/04/21 00:31:49;;;;;;;14.32;13.23;;;;;;;6.21;100.00;98187.81;4135189;28;20810;-49
2023/04/21 00:33:50;;;;;;;13.45;12.45;;;;;;;6.20;100.00;98201.63;4136601;28;20782;-49
2023/04/21 00:35:53;;;;;;;16.48;15.23;;;;;;;6.16;100.00;98189.56;4138689;28;20312;-50
2023/04/21 00:37:55;;;;;;;14.55;13.45;;;;;;;6.17;100.00;98185.78;4135414;28;20615;-50
2023/04/21 00:39:57;;;;;;;15.10;13.60;;;;;;;6.14;100.00;98186.22;4140176;28;20213;-49
2023/04/21 00:42:00;;;;;;;13.95;12.85;;;;;;;6.21;100.00;98184.25;4137061;28;20276;-49
2023/04/21 00:44:03;;;;;;;15.82;14.63;;;;;;;6.13;100.00;98190.00;4138751;28;20236;-49
2023/04/21 00:46:05;;;;;;;13.73;12.73;;;;;;;6.05;100.00;98190.34;4151701;28;20232;-49
2023/04/21 00:48:07;;;;;;;13.02;12.00;;;;;;;6.02;100.00;98188.09;4136199;28;20259;-49
2023/04/21 00:50:10;;;;;;;13.13;12.10;;;;;;;5.95;100.00;98188.16;4140289;28;20243;-49
2023/04/21 00:52:13;;;;;;;13.57;12.52;;;;;;;5.94;100.00;98191.09;4150279;28;20201;-49
2023/04/21 00:54:15;;;;;;;12.63;11.63;;;;;;;5.91;100.00;98191.56;4126228;28;20225;-50
2023/04/21 00:56:17;;;;;;;14.23;13.02;;;;;;;5.91;100.00;98197.00;4133707;28;20244;-49
2023/04/21 00:58:19;;;;;;;14.18;13.23;;;;;;;5.94;100.00;98191.09;4126591;28;20273;-49
2023/04/21 01:00:21;;;;;;;13.73;12.82;;;;;;;5.89;100.00;98191.78;4135444;28;20249;-49
2023/04/21 01:02:23;;;;;;;13.27;12.38;;;;;;;5.81;100.00;98178.53;4150510;28;20223;-49
2023/04/21 01:04:25;;;;;;;12.70;11.75;;;;;;;5.73;100.00;98180.69;4135432;28;20212;-50
2023/04/21 01:06:28;;;;;;;14.48;13.38;;;;;;;5.70;100.00;98176.53;4135439;28;20861;-50
2023/04/21 01:08:30;;;;;;;12.45;11.52;;;;;;;5.64;100.00;98172.03;4137349;28;20260;-50
2023/04/21 01:10:32;;;;;;;13.32;12.02;;;;;;;5.64;100.00;98180.16;4120198;28;20632;-49
2023/04/21 01:12:44;;;;;;;13.75;12.68;;;;;;;5.61;100.00;98171.66;4132737;28;20588;-50
2023/04/21 01:14:46;;;;;;;13.32;12.32;;;;;;;5.58;100.00;98180.25;4135659;28;20205;-49
2023/04/21 01:16:51;;;;;;;13.32;12.43;;;;;;;5.45;100.00;98173.09;4118274;28;20248;-49
2023/04/21 01:18:54;;;;;;;12.65;11.65;;;;;;;5.45;100.00;98173.09;4120079;28;20226;-50
2023/04/21 01:20:57;;;;;;;12.10;11.18;;;;;;;5.46;100.00;98171.22;4140212;28;20837;-50
2023/04/21 01:22:59;;;;;;;12.32;11.43;;;;;;;5.45;100.00;98174.97;4133623;28;20213;-49
2023/04/21 01:25:01;;;;;;;12.98;11.95;;;;;;;5.45;100.00;98174.97;4143539;28;20249;-50
2023/04/21 01:27:03;;;;;;;13.15;12.15;;;;;;;5.39;100.00;98171.31;4141515;28;20260;-49
2023/04/21 01:29:04;;;;;;;12.25;11.35;;;;;;;5.45;100.00;98174.97;4136830;28;20240;-49
2023/04/21 01:31:06;;;;;;;12.90;11.85;;;;;;;5.37;100.00;98172.56;4119501;28;20572;-50
2023/04/21 01:33:08;;;;;;;11.75;10.85;;;;;;;5.32;100.00;98172.41;4135946;28;20646;-49
2023/04/21 01:35:10;;;;;;;13.15;12.15;;;;;;;5.24;100.00;98173.53;4147246;28;20240;-48
2023/04/21 01:37:17;;;;;;;11.43;10.60;;;;;;;5.23;100.00;98171.06;4138055;28;20206;-51
2023/04/21 01:39:19;;;;;;;11.88;10.88;;;;;;;5.32;100.00;98169.69;4138473;28;20260;-49
2023/04/21 01:41:21;;;;;;;13.63;12.30;;;;;;;5.22;100.00;98174.84;4137951;28;20579;-50
2023/04/21 01:43:24;;;;;;;12.25;11.35;;;;;;;5.30;100.00;98171.81;4134342;28;20213;-49
2023/04/21 01:45:26;;;;;;;12.52;11.55;;;;;;;5.21;100.00;98175.84;4147772;28;20897;-49
2023/04/21 01:47:28;;;;;;;13.10;11.93;;;;;;;5.13;100.00;98176.16;4150440;28;20213;-49
2023/04/21 01:49:29;;;;;;;10.95;9.98;;;;;;;5.05;100.00;98179.16;4134865;28;20341;-49
2023/04/21 01:51:31;;;;;;;13.63;12.43;;;;;;;5.10;100.00;98179.34;4137976;28;21016;-48
2023/04/21 01:53:33;;;;;;;12.13;10.95;;;;;;;5.00;100.00;98176.28;4119012;28;20623;-50
2023/04/21 01:55:35;;;;;;;12.15;11.15;;;;;;;4.99;100.00;98176.53;4150251;28;20244;-49
2023/04/21 01:57:37;;;;;;;12.75;11.60;;;;;;;4.90;100.00;98175.97;4133919;28;20265;-49
2023/04/21 01:59:39;;;;;;;10.98;10.18;;;;;;;4.86;100.00;98173.94;4121190;28;20265;-49
2023/04/21 02:01:40;;;;;;;12.32;11.32;;;;;;;4.88;100.00;98172.63;4136897;28;20218;-49
2023/04/21 02:03:42;;;;;;;12.60;11.70;;;;;;;4.85;100.00;98170.38;4133631;28;20220;-49
2023/04/21 02:05:44;;;;;;;12.13;11.20;;;;;;;4.78;100.00;98172.34;4154316;28;20231;-50
2023/04/21 02:07:46;;;;;;;12.07;11.07;;;;;;;4.79;100.00;98165.84;4139913;28;20324;-49
2023/04/21 02:09:48;;;;;;;12.23;11.32;;;;;;;4.70;100.00;98169.91;4155062;28;20255;-49
2023/04/21 02:11:49;;;;;;;11.98;11.10;;;;;;;4.73;100.00;98164.03;4140702;28;20214;-49
2023/04/21 02:13:53;;;;;;;13.95;12.93;;;;;;;4.76;100.00;98163.59;4152852;28;20212;-49
2023/04/21 02:15:54;;;;;;;13.38;12.35;;;;;;;4.67;100.00;98164.91;4135076;28;20212;-49
2023/04/21 02:18:13;;;;;;;12.52;11.63;;;;;;;4.68;100.00;98173.88;4137959;28;20229;-49
2023/04/21 02:20:15;;;;;;;11.98;11.07;;;;;;;4.66;100.00;98167.88;4123817;28;20214;-50
2023/04/21 02:22:17;;;;;;;12.68;11.68;;;;;;;4.58;100.00;98177.09;4154757;28;20209;-48
2023/04/21 02:24:19;;;;;;;12.38;11.38;;;;;;;4.55;100.00;98172.13;4136272;28;20268;-48
2023/04/21 02:26:20;;;;;;;10.82;10.02;;;;;;;4.60;100.00;98180.41;4140725;28;20831;-50
2023/04/21 02:28:22;;;;;;;11.25;10.30;;;;;;;4.58;100.00;98182.50;4136330;28;20256;-50
2023/04/21 02:30:24;;;;;;;12.95;12.02;;;;;;;4.55;100.00;98182.97;4136853;28;20617;-48
2023/04/21 02:32:28;;;;;;;12.55;11.57;;;;;;;4.52;100.00;98188.81;4140478;28;20237;-49
2023/04/21 02:34:30;;;;;;;11.25;10.43;;;;;;;4.46;100.00;98183.44;4140802;28;20225;-49
2023/04/21 02:36:32;;;;;;;11.30;10.48;;;;;;;4.54;100.00;98180.47;4140855;28;20214;-48
2023/04/21 02:38:34;;;;;;;10.73;9.90;;;;;;;4.44;100.00;98180.94;4138059;28;20688;-48
2023/04/21 02:40:36;;;;;;;12.55;11.57;;;;;;;4.43;100.00;98186.56;4137686;28;20210;-48
2023/04/21 02:42:37;;;;;;;13.15;12.07;;;;;;;4.40;100.00;98178.91;4140721;28;20276;-49
2023/04/21 02:44:39;;;;;;;12.32;11.32;;;;;;;4.35;100.00;98171.41;4139662;28;20292;-48
2023/04/21 02:46:41;;;;;;;11.48;10.48;;;;;;;4.40;100.00;98185.13;4140160;28;20300;-49
2023/04/21 02:48:43;;;;;;;12.68;11.63;;;;;;;4.33;100.00;98183.53;4135808;28;20241;-50
2023/04/21 02:50:45;;;;;;;11.10;10.25;;;;;;;4.35;100.00;98190.38;4135101;28;20308;-49
2023/04/21 02:52:47;;;;;;;12.75;11.65;;;;;;;4.33;100.00;98184.34;4135247;28;20726;-47
2023/04/21 02:54:49;;;;;;;11.45;10.55;;;;;;;4.26;100.00;98182.75;4134153;28;20206;-49
2023/04/21 02:56:51;;;;;;;12.55;11.75;;;;;;;4.24;100.00;98195.66;4135996;28;20212;-48
2023/04/21 02:59:15;;;;;;;11.13;10.23;;;;;;;4.21;100.00;98191.50;4139427;28;20306;-48
2023/04/21 03:01:17;;;;;;;11.15;10.25;;;;;;;4.22;100.00;98193.19;4138571;28;20313;-48
2023/04/21 03:03:19;;;;;;;11.27;10.48;;;;;;;4.18;100.00;98191.97;4155979;28;20213;-49
2023/04/21 03:05:21;;;;;;;11.98;10.98;;;;;;;4.27;100.00;98190.63;4144988;28;20213;-48
2023/04/21 03:07:23;;;;;;;10.75;9.90;;;;;;;4.20;100.00;98189.03;4124697;28;20217;-48
2023/04/21 03:09:24;;;;;;;11.68;10.68;;;;;;;4.16;100.00;98198.63;4139390;28;20241;-49
2023/04/21 03:11:29;;;;;;;12.00;10.93;;;;;;;4.24;100.00;98190.25;4136820;28;20209;-48
2023/04/21 03:13:31;;;;;;;11.32;10.52;;;;;;;4.13;100.00;98194.47;4141062;28;20221;-48
2023/04/21 03:15:33;;;;;;;12.52;11.52;;;;;;;4.06;100.00;98199.09;4138869;28;20252;-49
2023/04/21 03:17:35;;;;;;;11.50;10.60;;;;;;;4.07;100.00;98200.75;4134469;28;20568;-48
2023/04/21 03:19:36;;;;;;;12.07;10.88;;;;;;;4.04;100.00;98195.78;4138725;28;20235;-49
2023/04/21 03:21:38;;;;;;;12.52;11.52;;;;;;;4.03;100.00;98194.13;4122515;28;21011;-48
2023/04/21 03:23:40;;;;;;;12.75;11.75;;;;;;;3.98;100.00;98202.06;4140244;28;20917;-48
2023/04/21 03:25:42;;;;;;;11.60;10.60;;;;;;;3.96;100.00;98209.59;4122407;28;20655;-49
2023/04/21 03:27:43;;;;;;;11.77;10.88;;;;;;;3.92;100.00;98202.94;4133401;28;20262;-48
2023/04/21 03:29:45;;;;;;;11.77;10.77;;;;;;;3.87;100.00;98199.22;4150709;28;20210;-48
2023/04/21 03:31:47;;;;;;;12.90;11.90;;;;;;;3.99;100.00;98203.72;4134551;28;20707;-48
2023/04/21 03:33:49;;;;;;;11.52;10.57;;;;;;;3.95;100.00;98205.19;4136256;28;20213;-47
2023/04/21 03:35:50;;;;;;;13.52;11.50;;;;;;;3.90;100.00;98205.03;4123350;28;20297;-49
2023/04/21 03:37:52;;;;;;;12.15;11.13;;;;;;;3.93;100.00;98207.28;4135243;28;20209;-48
2023/04/21 03:39:54;;;;;;;13.18;12.13;;;;;;;3.95;100.00;98202.47;4151122;28;20381;-48
2023/04/21 03:41:56;;;;;;;12.88;11.77;;;;;;;3.89;100.00;98208.78;4131162;28;20312;-48
2023/04/21 03:43:58;;;;;;;13.00;11.93;;;;;;;3.87;100.00;98205.44;4122659;28;20297;-48
2023/04/21 03:45:59;;;;;;;13.50;12.40;;;;;;;4.03;100.00;98194.13;4120758;28;20699;-48
2023/04/21 03:48:02;;;;;;;12.45;11.45;;;;;;;4.03;100.00;98199.53;4132390;28;20276;-50
2023/04/21 03:50:05;;;;;;;13.95;12.85;;;;;;;3.98;100.00;98193.94;4116458;28;20219;-49
2023/04/21 03:52:07;;;;;;;12.18;11.18;;;;;;;4.03;100.00;98194.13;4131321;28;22024;-49
2023/04/21 03:54:09;;;;;;;12.82;11.73;;;;;;;4.06;100.00;98185.56;4136237;28;20225;-48
2023/04/21 03:56:10;;;;;;;12.93;11.93;;;;;;;4.04;100.00;98178.72;4125287;28;20242;-50
2023/04/21 03:58:13;;;;;;;12.98;11.98;;;;;;;4.25;100.00;98181.91;4116878;28;21528;-49
2023/04/21 04:00:15;;;;;;;13.02;12.02;;;;;;;4.22;100.00;98182.38;4134695;28;20271;-49
2023/04/21 04:02:17;;;;;;;14.15;13.13;;;;;;;4.12;100.00;98176.59;4121475;28;20214;-49
2023/04/21 04:04:19;;;;;;;12.90;11.90;;;;;;;4.11;100.00;98174.91;4118792;28;20301;-49
2023/04/21 04:06:21;;;;;;;12.80;11.90;;;;;;;4.06;100.00;98172.03;4136405;28;21171;-48
2023/04/21 04:08:23;;;;;;;13.90;12.80;;;;;;;4.12;100.00;98173.88;4140406;28;20279;-49
2023/04/21 04:10:24;;;;;;;12.95;11.85;;;;;;;4.14;100.00;98173.66;4137342;28;20679;-49
2023/04/21 04:12:26;;;;;;;13.93;12.80;;;;;;;4.09;100.00;98173.47;4119776;28;20637;-48
2023/04/21 04:14:29;;;;;;;12.75;11.73;;;;;;;4.16;100.00;98167.00;4137398;28;20218;-49
2023/04/21 04:16:33;;;;;;;14.48;13.38;;;;;;;4.06;100.00;98172.03;4137201;28;20272;-48
2023/04/21 04:18:35;;;;;;;11.85;10.95;;;;;;;4.04;100.00;98167.88;4136661;28;20233;-48
2023/04/21 04:20:36;;;;;;;12.32;11.43;;;;;;;4.05;100.00;98174.94;4118806;28;20249;-49
2023/04/21 04:22:38;;;;;;;11.45;10.65;;;;;;;4.15;100.00;98168.00;4135815;28;21079;-49
2023/04/21 04:24:40;;;;;;;12.98;11.90;;;;;;;4.20;100.00;98172.78;4135902;28;20257;-49
2023/04/21 04:26:45;;;;;;;13.15;12.05;;;;;;;4.08;100.00;98164.50;4132363;28;20214;-49
2023/04/21 04:28:47;;;;;;;13.88;12.77;;;;;;;4.04;100.00;98162.47;4137820;28;20319;-48
2023/04/21 04:30:49;;;;;;;13.35;12.35;;;;;;;4.00;100.00;98178.31;4132136;28;20237;-48
2023/04/21 04:32:51;;;;;;;13.48;12.38;;;;;;;4.10;100.00;98175.97;4130654;28;20914;-49
2023/04/21 04:34:57;;;;;;;11.75;10.82;;;;;;;4.11;100.00;98174.91;4132969;28;20225;-49
2023/04/21 04:37:01;;;;;;;16.58;12.52;;;;;;;4.07;100.00;98170.97;4122152;28;20925;-49
2023/04/21 04:39:03;;;;;;;12.07;11.05;;;;;;;4.05;100.00;98175.78;4140575;28;20722;-48
2023/04/21 04:41:05;;;;;;;14.02;12.82;;;;;;;4.14;100.00;98179.88;4133085;28;20334;-49
2023/04/21 04:43:07;;;;;;;13.85;12.65;;;;;;;4.13;100.00;98178.22;4132700;28;20300;-49
2023/04/21 04:45:10;;;;;;;13.27;12.10;;;;;;;4.15;100.00;98180.72;4135753;28;20206;-49
2023/04/21 04:47:12;;;;;;;12.52;11.43;;;;;;;4.17;100.00;98179.47;4141679;28;20300;-50
2023/04/21 04:49:14;;;;;;;14.20;13.18;;;;;;;4.19;100.00;98171.13;4134477;28;20289;-48
2023/04/21 04:51:16;;;;;;;15.07;13.77;;;;;;;4.19;100.00;98171.94;4134153;28;20245;-48
2023/04/21 04:53:18;;;;;;;13.38;12.20;;;;;;;4.20;100.00;98172.78;4137775;28;20225;-49
2023/04/21 04:55:20;;;;;;;14.82;13.63;;;;;;;4.19;100.00;98171.94;4134985;28;20245;-49
2023/04/21 04:57:21;;;;;;;14.50;13.38;;;;;;;4.21;100.00;98174.44;4135696;28;20220;-48
2023/04/21 04:59:23;;;;;;;15.10;13.80;;;;;;;4.34;100.00;98175.16;4140758;28;20268;-50
2023/04/21 05:01:29;;;;;;;14.85;13.65;;;;;;;4.27;100.00;98174.38;4140866;28;20755;-49
2023/04/21 05:03:31;;;;;;;14.68;13.48;;;;;;;4.32;100.00;98173.72;4139789;28;20209;-48
2023/04/21 05:05:33;;;;;;;14.27;13.15;;;;;;;4.30;100.00;98183.97;4134482;28;20217;-49
2023/04/21 05:07:34;;;;;;;13.18;12.15;;;;;;;4.32;100.00;98184.56;4137583;28;20306;-49
2023/04/21 05:09:36;;;;;;;13.88;12.73;;;;;;;4.35;100.00;98182.25;4138475;28;20221;-48
2023/04/21 05:11:38;;;;;;;14.05;12.90;;;;;;;4.33;100.00;98173.50;4130894;28;20217;-48
2023/04/21 05:13:40;;;;;;;13.00;11.80;;;;;;;4.36;100.00;98183.94;4134942;28;20215;-48
2023/04/21 05:15:42;;;;;;;14.23;13.07;;;;;;;4.40;100.00;98179.72;4134670;28;20725;-48
2023/04/21 05:17:44;;;;;;;14.20;13.10;;;;;;;4.42;100.00;98183.06;4134520;28;20214;-48
2023/04/21 05:19:46;;;;;;;14.48;13.35;;;;;;;4.52;100.00;98188.81;4133090;28;20739;-49
2023/04/21 05:21:49;;;;;;;14.40;13.30;;;;;;;4.51;100.00;98183.59;4134124;28;21197;-48
2023/04/21 05:23:51;;;;;;;13.55;12.45;;;;;;;4.63;100.00;98190.81;4134000;28;20264;-48
2023/04/21 05:25:53;;;;;;;14.77;13.48;;;;;;;4.60;100.00;98195.84;4137740;28;20720;-48
2023/04/21 05:27:56;;;;;;;15.13;13.77;;;;;;;4.64;100.00;98197.88;4135366;28;20482;-49
2023/04/21 05:29:59;;;;;;;15.02;13.85;;;;;;;4.67;100.00;98199.31;4122816;28;20252;-48
2023/04/21 05:32:01;;;;;;;15.95;14.55;;;;;;;4.73;100.00;98201.97;4141109;28;20233;-49
2023/04/21 05:34:03;;;;;;;14.77;13.55;;;;;;;4.77;100.00;98197.78;4140044;28;20271;-48
2023/04/21 05:36:09;;;;;;;14.45;13.35;;;;;;;4.85;100.00;98196.66;4136346;28;20647;-49
2023/04/21 05:38:10;;;;;;;16.73;15.40;;;;;;;4.90;100.00;98194.09;4120215;28;20233;-49
2023/04/21 05:40:12;;;;;;;17.75;15.90;;;;;;;4.97;100.00;98199.25;4125156;28;20703;-49
2023/04/21 05:42:14;;;;;;;17.08;15.77;;;;;;;5.06;100.00;98197.09;4137479;28;20722;-49
2023/04/21 05:44:16;;;;;;;17.13;15.77;;;;;;;5.12;100.00;98203.53;4142619;28;20237;-51
2023/04/21 05:46:19;;;;;;;16.05;14.43;;;;;;;5.14;100.00;98200.34;4121589;28;20213;-48
2023/04/21 05:48:22;;;;;;;17.33;16.02;;;;;;;5.22;100.00;98201.94;4138777;28;20308;-49
2023/04/21 05:50:27;;;;;;;16.42;15.00;;;;;;;5.28;100.00;98209.16;4118932;28;20210;-49
2023/04/21 05:52:31;;;;;;;16.92;15.52;;;;;;;5.36;100.00;98206.19;4125829;28;20253;-49
2023/04/21 05:54:33;;;;;;;19.83;18.23;;;;;;;5.46;100.00;98214.63;4139615;28;20209;-50
2023/04/21 05:56:35;;;;;;;18.48;16.67;;;;;;;5.53;100.00;98213.50;4121036;28;20290;-49
2023/04/21 05:58:37;;;;;;;19.05;17.33;;;;;;;5.61;100.00;98217.78;4149064;28;20308;-48
2023/04/21 06:00:39;;;;;;;19.95;18.00;;;;;;;5.66;100.00;98220.66;4148596;28;20295;-48
2023/04/21 06:02:41;;;;;;;21.52;19.70;;;;;;;5.62;100.00;98216.75;4133018;28;20217;-49
2023/04/21 06:04:43;;;;;;;21.27;19.42;;;;;;;5.65;100.00;98216.28;4139598;28;20213;-48
2023/04/21 06:06:45;;;;;;;18.60;17.10;;;;;;;5.71;100.00;98218.94;4136680;28;20205;-49
2023/04/21 06:08:47;;;;;;;19.73;18.15;;;;;;;5.88;100.00;98213.75;4121683;28;20230;-49
2023/04/21 06:10:49;;;;;;;22.42;20.23;;;;;;;5.96;100.00;98208.00;4120531;28;20225;-48
2023/04/21 06:12:51;;;;;;;19.98;18.23;;;;;;;6.04;100.00;98207.69;4136221;28;20786;-49
2023/04/21 06:14:56;;;;;;;21.48;19.67;;;;;;;6.11;100.00;98208.44;4136433;28;20332;-48
2023/04/21 06:16:58;;;;;;;20.52;18.70;;;;;;;6.24;100.00;98219.13;4126353;28;20225;-49
2023/04/21 06:19:00;;;;;;;24.23;21.92;;;;;;;6.28;100.00;98223.84;4122478;28;20657;-48
2023/04/21 06:21:02;;;;;;;20.05;18.35;;;;;;;6.35;100.00;98207.47;4120421;28;20762;-49
2023/04/21 06:23:04;;;;;;;22.75;20.42;;;;;;;6.40;100.00;98213.03;4137973;28;20209;-49
2023/04/21 06:25:06;;;;;;;20.95;19.08;;;;;;;6.42;100.00;98209.03;4126185;28;20206;-49
2023/04/21 06:27:10;;;;;;;21.13;18.98;;;;;;;6.46;100.00;98217.53;4132737;28;20241;-51
2023/04/21 06:29:12;;;;;;;21.70;19.58;;;;;;;6.38;100.00;98215.16;4135326;28;20269;-50
2023/04/21 06:31:14;;;;;;;21.23;19.45;;;;;;;6.28;100.00;98215.72;4135136;28;20228;-49
2023/04/21 06:33:16;;;;;;;20.30;18.50;;;;;;;6.39;100.00;98214.09;4139618;28;20216;-49
2023/04/21 06:35:19;;;;;;;21.13;19.38;;;;;;;6.41;100.00;98209.25;4139179;28;20241;-48
2023/04/21 06:37:21;;;;;;;21.60;19.60;;;;;;;6.41;100.00;98214.69;4122494;28;20723;-49
2023/04/21 06:39:22;;;;;;;21.77;19.70;;;;;;;6.57;100.00;98214.84;4142815;28;22114;-50
2023/04/21 06:41:25;;;;;;;21.80;19.80;;;;;;;6.72;100.00;98214.44;4122433;28;20702;-51
2023/04/21 06:43:27;;;;;;;22.58;20.38;;;;;;;6.92;100.00;98218.50;4141998;28;20295;-49
2023/04/21 06:45:28;;;;;;;19.92;18.33;;;;;;;7.03;100.00;98211.41;4137936;28;20894;-49
2023/04/21 06:47:30;;;;;;;19.27;17.70;;;;;;;6.98;100.00;98216.72;4136750;28;20216;-49
2023/04/21 06:49:33;;;;;;;17.50;15.70;;;;;;;6.75;100.00;98216.69;4135860;28;20225;-50
2023/04/21 06:51:36;;;;;;;16.67;15.38;;;;;;;6.94;100.00;98220.97;4128350;28;20599;-49
2023/04/21 06:53:38;;;;;;;18.52;16.88;;;;;;;7.37;100.00;98218.75;4124959;28;20218;-49
2023/04/21 06:55:41;;;;;;;18.92;17.13;;;;;;;7.64;100.00;98228.09;4123121;28;20573;-50
2023/04/21 06:57:42;;;;;;;19.75;17.83;;;;;;;7.59;100.00;98225.25;4126882;28;20687;-51
2023/04/21 06:59:47;;;;;;;19.77;16.98;;;;;;;7.48;100.00;98224.19;4122144;28;20248;-50
2023/04/21 07:01:51;;;;;;;17.75;16.17;;;;;;;7.18;100.00;98238.97;4133138;28;20245;-50
2023/04/21 07:03:53;;;;;;;18.40;16.95;;;;;;;7.11;100.00;98221.94;4153902;28;20252;-49
2023/04/21 07:05:55;;;;;;;17.02;15.70;;;;;;;7.11;100.00;98232.81;4153751;28;20288;-49
2023/04/21 07:08:00;;;;;;;18.40;16.90;;;;;;;7.17;100.00;98221.00;4135394;28;21849;-49
2023/04/21 07:10:02;;;;;;;16.50;15.00;;;;;;;7.15;100.00;98239.47;4132240;28;20212;-50
2023/04/21 07:12:04;;;;;;;18.98;17.40;;;;;;;7.10;100.00;98228.44;4150722;28;20270;-50
2023/04/21 07:14:05;;;;;;;16.85;15.50;;;;;;;7.28;100.00;98231.06;4136718;28;20359;-50
2023/04/21 07:16:07;;;;;;;16.42;15.02;;;;;;;7.25;100.00;98228.81;4140749;28;20271;-51
2023/04/21 07:18:09;;;;;;;19.08;17.45;;;;;;;7.45;100.00;98229.28;4136485;28;20726;-49
2023/04/21 07:20:11;;;;;;;15.82;14.60;;;;;;;7.41;100.00;98228.13;4151533;28;20789;-49
2023/04/21 07:22:13;;;;;;;15.23;14.07;;;;;;;7.56;100.00;98231.19;4119705;28;20269;-50
2023/04/21 07:24:14;;;;;;;16.98;15.48;;;;;;;7.58;100.00;98229.03;4133921;28;20237;-50
2023/04/21 07:26:17;;;;;;;16.08;14.70;;;;;;;7.62;100.00;98231.03;4142052;28;21130;-50
2023/04/21 07:28:18;;;;;;;16.00;14.60;;;;;;;7.73;100.00;98229.38;4137383;28;20229;-49
2023/04/21 07:30:20;;;;;;;16.23;14.60;;;;;;;7.72;100.00;98230.44;4136950;28;20241;-49
2023/04/21 07:32:22;;;;;;;15.85;14.65;;;;;;;7.74;100.00;98228.31;4138632;28;20240;-50
2023/04/21 07:34:24;;;;;;;15.52;14.20;;;;;;;7.73;100.00;98229.38;4136253;28;20264;-50
2023/04/21 07:36:27;;;;;;;14.77;13.68;;;;;;;7.69;100.00;98226.31;4134641;28;20221;-49
2023/04/21 07:38:31;;;;;;;16.58;15.25;;;;;;;7.80;100.00;98224.63;4134697;28;20732;-50
2023/04/21 07:40:33;;;;;;;15.57;14.38;;;;;;;7.80;100.00;98230.91;4138948;28;20304;-49
2023/04/21 07:42:35;;;;;;;14.95;13.70;;;;;;;8.22;100.00;98231.56;4136713;28;20233;-49
2023/04/21 07:44:37;;;;;;;14.93;13.73;;;;;;;8.47;100.00;98218.41;4134431;28;20220;-49
2023/04/21 07:46:38;;;;;;;13.90;12.88;;;;;;;8.90;100.00;98214.00;4140911;28;20271;-51
2023/04/21 07:48:46;;;;;;;13.18;12.18;;;;;;;9.30;100.00;98219.34;4134929;28;20238;-49
2023/04/21 07:50:49;;;;;;;12.95;11.82;;;;;;;9.44;100.00;98226.09;4149727;28;20201;-49
2023/04/21 07:52:50;;;;;;;13.80;12.63;;;;;;;9.68;100.00;98227.56;4133486;28;20231;-50
2023/04/21 07:54:52;;;;;;;11.20;10.20;;;;;;;9.95;99.69;98214.84;4114689;28;20249;-49
2023/04/21 07:56:54;;;;;;;11.77;10.88;;;;;;;10.15;98.66;98217.84;4132591;28;20210;-49
2023/04/21 07:58:56;;;;;;;8.95;8.30;;;;;;;9.65;97.41;98214.41;4137979;28;20225;-50
2023/04/21 08:00:58;;;;;;;11.15;10.32;;;;;;;9.99;98.20;98207.75;4135758;28;20229;-49
2023/04/21 08:03:01;;;;;;;9.98;9.23;;;;;;;10.00;97.58;98214.88;4124634;28;20260;-50
2023/04/21 08:05:04;;;;;;;10.38;9.52;;;;;;;10.16;97.02;98211.31;4152431;28;20220;-48
2023/04/21 08:07:08;;;;;;;9.60;8.90;;;;;;;10.49;97.55;98219.34;4137645;28;20253;-50
2023/04/21 08:09:10;;;;;;;10.23;9.45;;;;;;;11.24;97.08;98202.56;4135204;28;20229;-50
2023/04/21 08:11:12;;;;;;;8.82;8.13;;;;;;;11.11;94.44;98211.22;4150587;28;20209;-49
2023/04/21 08:13:14;;;;;;;9.63;8.82;;;;;;;11.23;94.98;98200.09;4144975;28;20217;-49
2023/04/21 08:15:16;;;;;;;9.32;8.63;;;;;;;11.23;91.60;98198.16;4130020;28;20224;-49
2023/04/21 08:17:27;;;;;;;8.40;7.70;;;;;;;11.40;91.62;98201.59;4139537;28;20214;-48
2023/04/21 08:19:33;;;;;;;8.73;8.02;;;;;;;11.52;92.81;98196.72;4145453;28;20315;-49
2023/04/21 08:21:35;;;;;;;8.63;7.93;;;;;;;11.85;89.37;98199.16;4136799;28;20217;-49
2023/04/21 08:23:37;;;;;;;7.78;7.18;;;;;;;12.27;90.58;98186.22;4138386;28;20208;-50
2023/04/21 08:25:39;;;;;;;7.85;7.35;;;;;;;12.09;85.87;98183.09;4128240;28;20288;-49
2023/04/21 08:27:42;;;;;;;7.70;7.10;;;;;;;11.77;88.26;98175.00;4135979;28;20339;-49
2023/04/21 08:29:44;;;;;;;6.95;6.43;;;;;;;12.27;87.67;98180.72;4139875;28;20209;-51
2023/04/21 08:31:46;;;;;;;6.45;6.00;;;;;;;12.25;87.26;98180.16;4134828;28;20240;-50
2023/04/21 08:33:47;;;;;;;6.70;6.30;;;;;;;12.50;85.46;98185.72;4146511;28;20209;-49
2023/04/21 08:36:04;;;;;;;5.80;5.32;;;;;;;12.32;85.53;98172.53;4126375;28;20221;-49
2023/04/21 08:38:18;;;;;;;6.38;5.90;;;;;;;12.70;83.00;98163.81;4150370;28;20590;-49
2023/04/21 08:40:20;;;;;;;5.63;5.22;;;;;;;12.81;85.46;98170.97;4137827;28;20232;-49
2023/04/21 08:42:22;;;;;;;9.40;5.20;;;;;;;13.16;83.48;98173.75;4139438;28;20214;-49
2023/04/21 08:44:25;;;;;;;6.57;6.07;;;;;;;12.53;84.81;98171.47;4150263;28;20255;-49
2023/04/21 08:46:27;;;;;;;5.32;4.93;;;;;;;13.10;84.03;98169.38;4133270;28;20213;-49
2023/04/21 08:48:30;;;;;;;3.83;3.63;;;;;;;13.24;80.11;98159.47;4135679;28;20237;-49
2023/04/21 08:50:32;;;;;;;5.78;3.10;;;;;;;12.50;80.16;98152.78;4141745;28;20248;-51
2023/04/21 08:52:34;;;;;;;3.75;3.45;;;;;;;12.78;81.70;98154.22;4135357;28;20222;-50
2023/04/21 08:54:37;;;;;;;3.65;3.35;;;;;;;13.13;82.10;98146.84;4121175;28;20237;-51
2023/04/21 08:56:39;;;;;;;4.28;3.22;;;;;;;13.31;80.84;98138.03;4132991;28;20228;-49
2023/04/21 08:58:41;;;;;;;3.50;3.20;;;;;;;13.00;79.96;98152.91;4141198;28;20233;-49
2023/04/21 09:00:43;;;;;;;3.53;3.33;;;;;;;12.81;80.29;98149.00;4131815;28;20971;-48
2023/04/21 09:03:07;;;;;;;4.95;2.90;;;;;;;12.75;81.29;98155.59;4150563;28;20226;-49
2023/04/21 09:05:33;;;;;;;4.25;3.92;;;;;;;11.95;81.49;98158.09;4147067;28;20212;-49
2023/04/21 09:07:40;;;;;;;4.18;3.00;;;;;;;12.75;80.06;98150.09;4131720;28;20209;-49
2023/04/21 09:09:55;;;;;;;3.72;3.40;;;;;;;13.08;78.51;98141.34;4136707;28;20221;-49
2023/04/21 09:11:57;;;;;;;4.20;3.88;;;;;;;13.13;77.90;98149.59;4147548;28;20256;-49
2023/04/21 09:13:59;;;;;;;4.57;4.18;;;;;;;13.05;77.98;98147.38;4134858;28;20242;-48
2023/04/21 09:16:15;;;;;;;2.92;2.72;;;;;;;13.10;76.61;98152.88;4132978;28;20603;-48
2023/04/21 09:18:21;;;;;;;3.10;2.30;;;;;;;13.32;77.28;98141.63;4120191;28;20240;-49
2023/04/21 09:20:24;;;;;;;2.22;2.00;;;;;;;13.68;75.48;98148.69;4149641;28;20243;-49
2023/04/21 09:22:28;;;;;;;2.67;2.47;;;;;;;13.58;75.75;98135.78;4126269;28;20261;-49
2023/04/21 09:24:30;;;;;;;3.33;3.13;;;;;;;13.78;75.28;98138.47;4137642;28;20320;-49
2023/04/21 09:26:32;;;;;;;3.22;2.90;;;;;;;14.17;76.67;98141.38;4133223;28;20240;-49